SWA344 KBNA-KSRQ
Flight info
| Callsign | SWA344 |
|---|---|
| Flight time | 1h 26m |
| Altitude | 37000 |
| Route | FLAME4 GENDE DRSDN ACORI |
| Aircraft | B737/M-SDE2E3FGHIRWXY/LB1 |
Departure
| Time | 2026-04-21 01:05 |
|---|---|
| Airport | Nashville International Airport (KBNA) |
Arrival
| Time | 2026-04-21 02:32 |
|---|---|
| Airport | Sarasota Bradenton International Airport (KSRQ) |
| Time | Latitude | Longitude | Altitude | Speed | Heading |
|---|---|---|---|---|---|
| 2026-04-21 00:31 | 36.12748 | -86.66894 | 571 ft | 0 kts | 330° |
| 2026-04-21 00:51 | 36.12747 | -86.66893 | 568 ft | 1 kts | 330° |
| 2026-04-21 00:51 | 36.12733 | -86.66883 | 571 ft | 2 kts | 330° |
| 2026-04-21 00:51 | 36.12721 | -86.66874 | 573 ft | 3 kts | 320° |
| 2026-04-21 00:51 | 36.12710 | -86.66859 | 574 ft | 3 kts | 274° |
| 2026-04-21 00:52 | 36.12714 | -86.66839 | 574 ft | 3 kts | 229° |
| 2026-04-21 00:52 | 36.12726 | -86.66824 | 577 ft | 1 kts | 221° |
| 2026-04-21 00:52 | 36.12729 | -86.66820 | 574 ft | 0 kts | 221° |
| 2026-04-21 00:55 | 36.12718 | -86.66832 | 572 ft | 4 kts | 220° |
| 2026-04-21 00:55 | 36.12703 | -86.66848 | 572 ft | 5 kts | 220° |
| 2026-04-21 00:55 | 36.12661 | -86.66896 | 572 ft | 9 kts | 231° |
| 2026-04-21 00:56 | 36.12702 | -86.67008 | 571 ft | 14 kts | 310° |
| 2026-04-21 00:56 | 36.12767 | -86.67102 | 569 ft | 11 kts | 311° |
| 2026-04-21 00:56 | 36.12771 | -86.67107 | 568 ft | 1 kts | 311° |
| 2026-04-21 00:56 | 36.12774 | -86.67112 | 568 ft | 1 kts | 311° |
| 2026-04-21 00:57 | 36.12778 | -86.67117 | 568 ft | 1 kts | 311° |
| 2026-04-21 00:57 | 36.12780 | -86.67120 | 568 ft | 0 kts | 311° |
| 2026-04-21 00:59 | 36.12785 | -86.67128 | 568 ft | 5 kts | 311° |
| 2026-04-21 00:59 | 36.12831 | -86.67192 | 573 ft | 13 kts | 311° |
| 2026-04-21 00:59 | 36.12852 | -86.67275 | 575 ft | 9 kts | 230° |
| 2026-04-21 01:00 | 36.12804 | -86.67331 | 570 ft | 11 kts | 223° |
| 2026-04-21 01:00 | 36.12739 | -86.67402 | 573 ft | 13 kts | 212° |
| 2026-04-21 01:00 | 36.12661 | -86.67360 | 576 ft | 16 kts | 132° |
| 2026-04-21 01:00 | 36.12579 | -86.67251 | 576 ft | 20 kts | 133° |
| 2026-04-21 01:01 | 36.12477 | -86.67118 | 574 ft | 22 kts | 133° |
| 2026-04-21 01:01 | 36.12373 | -86.66981 | 576 ft | 21 kts | 133° |
| 2026-04-21 01:01 | 36.12292 | -86.66863 | 572 ft | 15 kts | 117° |
| 2026-04-21 01:01 | 36.12258 | -86.66735 | 572 ft | 17 kts | 108° |
| 2026-04-21 01:02 | 36.12222 | -86.66593 | 569 ft | 15 kts | 108° |
| 2026-04-21 01:02 | 36.12147 | -86.66561 | 573 ft | 13 kts | 197° |
| 2026-04-21 01:02 | 36.12061 | -86.66596 | 574 ft | 14 kts | 198° |
| 2026-04-21 01:02 | 36.11947 | -86.66640 | 582 ft | 20 kts | 198° |
| 2026-04-21 01:03 | 36.11798 | -86.66700 | 582 ft | 23 kts | 197° |
| 2026-04-21 01:03 | 36.11649 | -86.66759 | 586 ft | 22 kts | 198° |
| 2026-04-21 01:03 | 36.11506 | -86.66817 | 589 ft | 22 kts | 198° |
| 2026-04-21 01:03 | 36.11402 | -86.66858 | 591 ft | 14 kts | 198° |
| 2026-04-21 01:04 | 36.11329 | -86.66883 | 590 ft | 8 kts | 176° |
| 2026-04-21 01:04 | 36.11299 | -86.66833 | 589 ft | 8 kts | 104° |
| 2026-04-21 01:04 | 36.11302 | -86.66757 | 590 ft | 9 kts | 44° |
| 2026-04-21 01:04 | 36.11363 | -86.66731 | 590 ft | 15 kts | 18° |
| 2026-04-21 01:05 | 36.11694 | -86.66599 | 586 ft | 86 kts | 18° |
| 2026-04-21 01:05 | 36.12477 | -86.66286 | 567 ft | 147 kts | 18° |
| 2026-04-21 01:05 | 36.13542 | -86.65867 | 905 ft | 166 kts | 16° |
| 2026-04-21 01:05 | 36.14621 | -86.65441 | 1765 ft | 159 kts | 27° |
| 2026-04-21 01:06 | 36.15426 | -86.64514 | 2427 ft | 164 kts | 47° |
| 2026-04-21 01:06 | 36.16262 | -86.63412 | 2706 ft | 191 kts | 44° |
| 2026-04-21 01:06 | 36.17253 | -86.62143 | 2962 ft | 218 kts | 44° |
| 2026-04-21 01:06 | 36.18383 | -86.60704 | 3180 ft | 248 kts | 45° |
| 2026-04-21 01:07 | 36.19636 | -86.59112 | 3678 ft | 265 kts | 44° |
| 2026-04-21 01:07 | 36.20830 | -86.57350 | 4442 ft | 273 kts | 58° |
| 2026-04-21 01:07 | 36.21501 | -86.55131 | 5325 ft | 277 kts | 73° |
| 2026-04-21 01:07 | 36.21976 | -86.52792 | 6079 ft | 286 kts | 77° |
| 2026-04-21 01:08 | 36.21794 | -86.50299 | 6771 ft | 298 kts | 105° |
| 2026-04-21 01:08 | 36.21107 | -86.47843 | 7014 ft | 304 kts | 107° |
| 2026-04-21 01:08 | 36.20170 | -86.45504 | 7015 ft | 305 kts | 130° |
| 2026-04-21 01:08 | 36.18523 | -86.43907 | 7029 ft | 301 kts | 156° |
| 2026-04-21 01:09 | 36.16519 | -86.43182 | 7410 ft | 301 kts | 178° |
| 2026-04-21 01:09 | 36.14428 | -86.43131 | 8320 ft | 300 kts | 186° |
| 2026-04-21 01:09 | 36.12341 | -86.43244 | 9263 ft | 302 kts | 187° |
| 2026-04-21 01:09 | 36.10228 | -86.43386 | 10164 ft | 306 kts | 187° |
| 2026-04-21 01:10 | 36.08034 | -86.43528 | 10625 ft | 327 kts | 187° |
| 2026-04-21 01:10 | 36.05691 | -86.43666 | 11113 ft | 343 kts | 186° |
| 2026-04-21 01:10 | 36.03305 | -86.43789 | 11862 ft | 350 kts | 186° |
| 2026-04-21 01:10 | 36.00856 | -86.43904 | 12702 ft | 355 kts | 187° |
| 2026-04-21 01:11 | 35.98365 | -86.44019 | 13524 ft | 360 kts | 187° |
| 2026-04-21 01:11 | 35.95835 | -86.44135 | 14333 ft | 366 kts | 187° |
| 2026-04-21 01:11 | 35.93272 | -86.44254 | 15064 ft | 371 kts | 187° |
| 2026-04-21 01:11 | 35.90744 | -86.44814 | 15799 ft | 367 kts | 207° |
| 2026-04-21 01:12 | 35.88556 | -86.46333 | 16600 ft | 360 kts | 222° |
| 2026-04-21 01:12 | 35.86527 | -86.48178 | 17383 ft | 364 kts | 224° |
| 2026-04-21 01:12 | 35.84499 | -86.50096 | 18161 ft | 371 kts | 224° |
| 2026-04-21 01:12 | 35.82440 | -86.52049 | 18876 ft | 377 kts | 224° |
| 2026-04-21 01:13 | 35.80346 | -86.54019 | 19596 ft | 380 kts | 224° |
| 2026-04-21 01:13 | 35.78229 | -86.55992 | 20316 ft | 384 kts | 224° |
| 2026-04-21 01:13 | 35.76111 | -86.57951 | 21017 ft | 387 kts | 223° |
| 2026-04-21 01:13 | 35.73941 | -86.59949 | 21707 ft | 391 kts | 223° |
| 2026-04-21 01:14 | 35.71747 | -86.61966 | 22405 ft | 396 kts | 223° |
| 2026-04-21 01:14 | 35.69530 | -86.64000 | 23037 ft | 401 kts | 223° |
| 2026-04-21 01:14 | 35.67272 | -86.66071 | 23653 ft | 406 kts | 223° |
| 2026-04-21 01:14 | 35.64994 | -86.68156 | 24252 ft | 410 kts | 223° |
| 2026-04-21 01:15 | 35.62699 | -86.70256 | 24854 ft | 412 kts | 223° |
| 2026-04-21 01:15 | 35.60396 | -86.72361 | 25452 ft | 414 kts | 223° |
| 2026-04-21 01:15 | 35.58079 | -86.74479 | 26014 ft | 417 kts | 223° |
| 2026-04-21 01:15 | 35.55688 | -86.76530 | 26541 ft | 427 kts | 214° |
| 2026-04-21 01:16 | 35.52836 | -86.77762 | 27034 ft | 446 kts | 194° |
| 2026-04-21 01:16 | 35.49721 | -86.78107 | 27623 ft | 451 kts | 188° |
| 2026-04-21 01:16 | 35.46560 | -86.78296 | 28124 ft | 456 kts | 187° |
| 2026-04-21 01:16 | 35.43376 | -86.78447 | 28619 ft | 459 kts | 187° |
| 2026-04-21 01:17 | 35.40172 | -86.78600 | 29144 ft | 461 kts | 187° |
| 2026-04-21 01:17 | 35.37002 | -86.78771 | 29634 ft | 464 kts | 188° |
| 2026-04-21 01:17 | 35.33756 | -86.78966 | 30050 ft | 468 kts | 188° |
| 2026-04-21 01:17 | 35.30497 | -86.79175 | 30489 ft | 471 kts | 188° |
| 2026-04-21 01:18 | 35.27219 | -86.79393 | 30904 ft | 472 kts | 188° |
| 2026-04-21 01:18 | 35.23930 | -86.79615 | 31300 ft | 474 kts | 188° |
| 2026-04-21 01:18 | 35.20623 | -86.79838 | 31666 ft | 477 kts | 188° |
| 2026-04-21 01:18 | 35.17304 | -86.80063 | 32014 ft | 478 kts | 189° |
| 2026-04-21 01:19 | 35.13973 | -86.80286 | 32391 ft | 479 kts | 189° |
| 2026-04-21 01:19 | 35.10638 | -86.80508 | 32891 ft | 478 kts | 189° |
| 2026-04-21 01:19 | 35.07328 | -86.80727 | 33416 ft | 475 kts | 189° |
| 2026-04-21 01:19 | 35.04034 | -86.80945 | 33909 ft | 473 kts | 189° |
| 2026-04-21 01:20 | 35.00750 | -86.81164 | 34328 ft | 472 kts | 190° |
| 2026-04-21 01:20 | 34.97512 | -86.81380 | 34663 ft | 472 kts | 190° |
| 2026-04-21 01:20 | 34.94235 | -86.81599 | 34961 ft | 471 kts | 191° |
| 2026-04-21 01:20 | 34.90970 | -86.81817 | 35331 ft | 469 kts | 191° |
| 2026-04-21 01:21 | 34.87711 | -86.82033 | 35665 ft | 468 kts | 191° |
| 2026-04-21 01:21 | 34.84456 | -86.82250 | 35943 ft | 469 kts | 191° |
| 2026-04-21 01:21 | 34.81188 | -86.82403 | 36223 ft | 474 kts | 185° |
| 2026-04-21 01:21 | 34.77884 | -86.81688 | 36484 ft | 489 kts | 169° |
| 2026-04-21 01:22 | 34.74634 | -86.80462 | 36826 ft | 489 kts | 168° |
| 2026-04-21 01:22 | 34.71389 | -86.79179 | 37072 ft | 490 kts | 168° |
| 2026-04-21 01:22 | 34.68139 | -86.77887 | 37239 ft | 491 kts | 169° |
| 2026-04-21 01:22 | 34.64883 | -86.76609 | 37282 ft | 492 kts | 169° |
| 2026-04-21 01:23 | 34.58347 | -86.74106 | 37289 ft | 491 kts | 170° |
| 2026-04-21 01:23 | 34.51832 | -86.71661 | 37285 ft | 489 kts | 170° |
| 2026-04-21 01:24 | 34.45330 | -86.69239 | 37292 ft | 488 kts | 170° |
| 2026-04-21 01:24 | 34.38876 | -86.66836 | 37296 ft | 487 kts | 171° |
| 2026-04-21 01:25 | 34.32402 | -86.64426 | 37317 ft | 486 kts | 171° |
| 2026-04-21 01:25 | 34.25938 | -86.62024 | 37310 ft | 486 kts | 171° |
| 2026-04-21 01:26 | 34.19456 | -86.59618 | 37307 ft | 486 kts | 171° |
| 2026-04-21 01:26 | 34.13036 | -86.57240 | 37309 ft | 486 kts | 171° |
| 2026-04-21 01:27 | 34.06555 | -86.54847 | 37313 ft | 487 kts | 171° |
| 2026-04-21 01:27 | 34.00067 | -86.52449 | 37319 ft | 488 kts | 171° |
| 2026-04-21 01:28 | 33.93565 | -86.50050 | 37320 ft | 489 kts | 171° |
| 2026-04-21 01:28 | 33.87038 | -86.47646 | 37307 ft | 490 kts | 171° |
| 2026-04-21 01:29 | 33.80506 | -86.45244 | 37316 ft | 491 kts | 171° |
| 2026-04-21 01:29 | 33.73959 | -86.42842 | 37313 ft | 492 kts | 171° |
| 2026-04-21 01:30 | 33.67411 | -86.40442 | 37312 ft | 492 kts | 171° |
| 2026-04-21 01:30 | 33.60897 | -86.38057 | 37282 ft | 492 kts | 171° |
| 2026-04-21 01:31 | 33.54347 | -86.35663 | 37303 ft | 491 kts | 172° |
| 2026-04-21 01:31 | 33.47808 | -86.33282 | 37303 ft | 491 kts | 172° |
| 2026-04-21 01:32 | 33.41269 | -86.30900 | 37314 ft | 491 kts | 172° |
| 2026-04-21 01:32 | 33.34735 | -86.28524 | 37314 ft | 490 kts | 172° |
| 2026-04-21 01:33 | 33.28213 | -86.26157 | 37317 ft | 490 kts | 172° |
| 2026-04-21 01:33 | 33.21692 | -86.23793 | 37302 ft | 489 kts | 172° |
| 2026-04-21 01:34 | 33.15181 | -86.21437 | 37296 ft | 489 kts | 172° |
| 2026-04-21 01:34 | 33.08717 | -86.19101 | 37265 ft | 488 kts | 172° |
| 2026-04-21 01:35 | 33.02200 | -86.17060 | 37301 ft | 481 kts | 177° |
| 2026-04-21 01:35 | 32.95662 | -86.15440 | 37300 ft | 479 kts | 178° |
| 2026-04-21 01:36 | 32.89122 | -86.13850 | 37297 ft | 479 kts | 178° |
| 2026-04-21 01:36 | 32.82596 | -86.12221 | 37260 ft | 479 kts | 178° |
| 2026-04-21 01:37 | 32.76080 | -86.10569 | 37290 ft | 479 kts | 177° |
| 2026-04-21 01:37 | 32.69557 | -86.08914 | 37296 ft | 478 kts | 178° |
| 2026-04-21 01:38 | 32.63049 | -86.07266 | 37279 ft | 478 kts | 178° |
| 2026-04-21 01:38 | 32.56537 | -86.05622 | 37282 ft | 478 kts | 178° |
| 2026-04-21 01:39 | 32.50030 | -86.03981 | 37268 ft | 478 kts | 177° |
| 2026-04-21 01:39 | 32.43523 | -86.02342 | 37276 ft | 478 kts | 177° |
| 2026-04-21 01:40 | 32.37019 | -86.00707 | 37274 ft | 478 kts | 177° |
| 2026-04-21 01:40 | 32.30556 | -85.99084 | 37278 ft | 478 kts | 177° |
| 2026-04-21 01:41 | 32.24054 | -85.97454 | 37273 ft | 477 kts | 177° |
| 2026-04-21 01:41 | 32.17561 | -85.95828 | 37278 ft | 477 kts | 177° |
| 2026-04-21 01:42 | 32.11066 | -85.94205 | 37289 ft | 477 kts | 177° |
| 2026-04-21 01:42 | 32.05662 | -85.92856 | 37290 ft | 477 kts | 177° |
| 2026-04-21 01:43 | 31.99172 | -85.91238 | 37263 ft | 477 kts | 178° |
| 2026-04-21 01:43 | 31.91631 | -85.89360 | 37287 ft | 476 kts | 178° |
| 2026-04-21 01:44 | 31.86206 | -85.88011 | 37296 ft | 476 kts | 178° |
| 2026-04-21 01:44 | 31.79722 | -85.86332 | 37287 ft | 482 kts | 172° |
| 2026-04-21 01:45 | 31.73555 | -85.83026 | 37281 ft | 502 kts | 153° |
| 2026-04-21 01:45 | 31.67780 | -85.78382 | 37275 ft | 503 kts | 153° |
| 2026-04-21 01:46 | 31.62024 | -85.73724 | 37270 ft | 503 kts | 153° |
| 2026-04-21 01:46 | 31.56236 | -85.69104 | 37274 ft | 502 kts | 153° |
| 2026-04-21 01:47 | 31.50440 | -85.64520 | 37266 ft | 502 kts | 153° |
| 2026-04-21 01:47 | 31.44631 | -85.59943 | 37225 ft | 502 kts | 153° |
| 2026-04-21 01:48 | 31.38843 | -85.55386 | 37257 ft | 501 kts | 154° |
| 2026-04-21 01:48 | 31.33108 | -85.50876 | 37307 ft | 499 kts | 154° |
| 2026-04-21 01:49 | 31.27348 | -85.46351 | 37310 ft | 497 kts | 154° |
| 2026-04-21 01:49 | 31.21608 | -85.41850 | 37321 ft | 496 kts | 154° |
| 2026-04-21 01:50 | 31.15874 | -85.37362 | 37267 ft | 496 kts | 154° |
| 2026-04-21 01:50 | 31.10160 | -85.32894 | 37279 ft | 494 kts | 154° |
| 2026-04-21 01:51 | 31.04458 | -85.28442 | 37272 ft | 492 kts | 154° |
| 2026-04-21 01:51 | 30.98769 | -85.24008 | 37268 ft | 491 kts | 154° |
| 2026-04-21 01:52 | 30.90298 | -85.17417 | 37265 ft | 490 kts | 154° |
| 2026-04-21 01:53 | 30.84635 | -85.13018 | 37254 ft | 488 kts | 154° |
| 2026-04-21 01:53 | 30.78983 | -85.08635 | 37259 ft | 488 kts | 154° |
| 2026-04-21 01:54 | 30.73339 | -85.04263 | 37276 ft | 487 kts | 154° |
| 2026-04-21 01:54 | 30.67699 | -84.99902 | 37266 ft | 487 kts | 154° |
| 2026-04-21 01:55 | 30.62057 | -84.95546 | 37267 ft | 487 kts | 154° |
| 2026-04-21 01:55 | 30.56404 | -84.91186 | 37266 ft | 487 kts | 154° |
| 2026-04-21 01:56 | 30.50792 | -84.86865 | 37263 ft | 488 kts | 154° |
| 2026-04-21 01:56 | 30.45131 | -84.82512 | 37266 ft | 488 kts | 154° |
| 2026-04-21 01:57 | 30.39468 | -84.78163 | 37265 ft | 488 kts | 154° |
| 2026-04-21 01:57 | 30.33800 | -84.73816 | 37265 ft | 489 kts | 154° |
| 2026-04-21 01:58 | 30.28127 | -84.69472 | 37239 ft | 489 kts | 154° |
| 2026-04-21 01:58 | 30.22456 | -84.65135 | 37259 ft | 489 kts | 154° |
| 2026-04-21 01:59 | 30.16773 | -84.60796 | 37261 ft | 489 kts | 154° |
| 2026-04-21 01:59 | 30.11121 | -84.56486 | 37263 ft | 490 kts | 154° |
| 2026-04-21 02:00 | 30.05433 | -84.52155 | 37260 ft | 490 kts | 154° |
| 2026-04-21 02:00 | 29.99742 | -84.47827 | 37231 ft | 490 kts | 154° |
| 2026-04-21 02:01 | 29.94053 | -84.43506 | 37262 ft | 489 kts | 154° |
| 2026-04-21 02:01 | 29.88372 | -84.39197 | 37263 ft | 488 kts | 154° |
| 2026-04-21 02:02 | 29.82696 | -84.34899 | 37268 ft | 488 kts | 155° |
| 2026-04-21 02:02 | 29.77027 | -84.30613 | 37266 ft | 487 kts | 155° |
| 2026-04-21 02:03 | 29.71362 | -84.26335 | 37271 ft | 487 kts | 155° |
| 2026-04-21 02:03 | 29.65707 | -84.22070 | 37263 ft | 486 kts | 155° |
| 2026-04-21 02:04 | 29.60053 | -84.17812 | 37261 ft | 486 kts | 155° |
| 2026-04-21 02:04 | 29.54439 | -84.13591 | 37268 ft | 485 kts | 155° |
| 2026-04-21 02:05 | 29.48779 | -84.09340 | 37266 ft | 486 kts | 155° |
| 2026-04-21 02:05 | 29.43120 | -84.05096 | 37273 ft | 486 kts | 155° |
| 2026-04-21 02:06 | 29.37452 | -84.00850 | 37261 ft | 485 kts | 155° |
| 2026-04-21 02:06 | 29.31792 | -83.96616 | 37263 ft | 486 kts | 155° |
| 2026-04-21 02:06 | 29.28951 | -83.94495 | 37055 ft | 489 kts | 155° |
| 2026-04-21 02:07 | 29.26089 | -83.92361 | 36516 ft | 490 kts | 155° |
| 2026-04-21 02:07 | 29.23238 | -83.90232 | 35964 ft | 489 kts | 155° |
| 2026-04-21 02:07 | 29.20390 | -83.88105 | 35427 ft | 487 kts | 155° |
| 2026-04-21 02:07 | 29.17569 | -83.85998 | 34985 ft | 482 kts | 155° |
| 2026-04-21 02:08 | 29.14772 | -83.83910 | 34525 ft | 478 kts | 155° |
| 2026-04-21 02:08 | 29.11995 | -83.81841 | 34027 ft | 475 kts | 155° |
| 2026-04-21 02:08 | 29.09233 | -83.79786 | 33499 ft | 471 kts | 154° |
| 2026-04-21 02:08 | 29.06537 | -83.77782 | 33060 ft | 466 kts | 154° |
| 2026-04-21 02:09 | 29.03830 | -83.75770 | 32613 ft | 462 kts | 154° |
| 2026-04-21 02:09 | 29.01146 | -83.73779 | 32172 ft | 458 kts | 154° |
| 2026-04-21 02:09 | 28.98481 | -83.71802 | 31735 ft | 454 kts | 154° |
| 2026-04-21 02:09 | 28.95841 | -83.69847 | 31306 ft | 452 kts | 154° |
| 2026-04-21 02:10 | 28.93211 | -83.67899 | 30880 ft | 449 kts | 154° |
| 2026-04-21 02:10 | 28.90593 | -83.65962 | 30443 ft | 447 kts | 154° |
| 2026-04-21 02:10 | 28.87984 | -83.64033 | 29947 ft | 446 kts | 153° |
| 2026-04-21 02:10 | 28.85387 | -83.62112 | 29468 ft | 442 kts | 153° |
| 2026-04-21 02:11 | 28.82815 | -83.60211 | 29001 ft | 439 kts | 153° |
| 2026-04-21 02:11 | 28.80259 | -83.58322 | 28511 ft | 435 kts | 153° |
| 2026-04-21 02:11 | 28.77765 | -83.56479 | 28108 ft | 430 kts | 153° |
| 2026-04-21 02:11 | 28.75262 | -83.54631 | 27652 ft | 427 kts | 153° |
| 2026-04-21 02:12 | 28.72781 | -83.52802 | 27211 ft | 423 kts | 153° |
| 2026-04-21 02:12 | 28.70319 | -83.50988 | 26764 ft | 420 kts | 153° |
| 2026-04-21 02:12 | 28.67866 | -83.49182 | 26319 ft | 417 kts | 153° |
| 2026-04-21 02:12 | 28.65436 | -83.47394 | 25871 ft | 415 kts | 152° |
| 2026-04-21 02:13 | 28.63012 | -83.45611 | 25410 ft | 413 kts | 152° |
| 2026-04-21 02:13 | 28.60603 | -83.43841 | 24964 ft | 411 kts | 152° |
| 2026-04-21 02:13 | 28.58199 | -83.42074 | 24505 ft | 410 kts | 152° |
| 2026-04-21 02:13 | 28.55803 | -83.40315 | 24058 ft | 409 kts | 152° |
| 2026-04-21 02:14 | 28.53449 | -83.38588 | 23572 ft | 407 kts | 151° |
| 2026-04-21 02:14 | 28.51077 | -83.36847 | 23084 ft | 405 kts | 151° |
| 2026-04-21 02:14 | 28.48714 | -83.35114 | 22605 ft | 401 kts | 150° |
| 2026-04-21 02:14 | 28.46379 | -83.33402 | 22162 ft | 397 kts | 150° |
| 2026-04-21 02:15 | 28.44065 | -83.31706 | 21723 ft | 393 kts | 150° |
| 2026-04-21 02:15 | 28.41775 | -83.30029 | 21295 ft | 390 kts | 150° |
| 2026-04-21 02:15 | 28.39504 | -83.28367 | 20862 ft | 387 kts | 150° |
| 2026-04-21 02:15 | 28.37251 | -83.26719 | 20425 ft | 384 kts | 150° |
| 2026-04-21 02:16 | 28.35015 | -83.25085 | 20000 ft | 381 kts | 150° |
| 2026-04-21 02:16 | 28.32793 | -83.23461 | 19573 ft | 378 kts | 150° |
| 2026-04-21 02:16 | 28.30585 | -83.21850 | 19135 ft | 376 kts | 150° |
| 2026-04-21 02:16 | 28.28386 | -83.20245 | 18700 ft | 374 kts | 149° |
| 2026-04-21 02:17 | 28.26201 | -83.18651 | 18104 ft | 371 kts | 149° |
| 2026-04-21 02:17 | 28.24063 | -83.17090 | 17770 ft | 358 kts | 149° |
| 2026-04-21 02:17 | 28.21967 | -83.15562 | 17147 ft | 355 kts | 149° |
| 2026-04-21 02:17 | 28.19907 | -83.14061 | 16722 ft | 351 kts | 149° |
| 2026-04-21 02:18 | 28.17885 | -83.12588 | 16304 ft | 349 kts | 148° |
| 2026-04-21 02:18 | 28.15854 | -83.11110 | 15890 ft | 346 kts | 148° |
| 2026-04-21 02:18 | 28.13831 | -83.09639 | 15476 ft | 344 kts | 148° |
| 2026-04-21 02:18 | 28.11820 | -83.08178 | 15060 ft | 342 kts | 148° |
| 2026-04-21 02:19 | 28.09822 | -83.06726 | 14651 ft | 341 kts | 148° |
| 2026-04-21 02:19 | 28.07829 | -83.05279 | 14223 ft | 340 kts | 148° |
| 2026-04-21 02:19 | 28.05846 | -83.03838 | 13781 ft | 338 kts | 148° |
| 2026-04-21 02:19 | 28.03871 | -83.02405 | 13339 ft | 336 kts | 148° |
| 2026-04-21 02:20 | 28.01910 | -83.00982 | 12904 ft | 334 kts | 147° |
| 2026-04-21 02:20 | 27.99964 | -82.99571 | 12491 ft | 330 kts | 147° |
| 2026-04-21 02:20 | 27.98039 | -82.98175 | 12075 ft | 327 kts | 147° |
| 2026-04-21 02:20 | 27.96124 | -82.96788 | 11667 ft | 326 kts | 147° |
| 2026-04-21 02:21 | 27.94222 | -82.95411 | 11260 ft | 323 kts | 147° |
| 2026-04-21 02:21 | 27.92332 | -82.94042 | 10845 ft | 322 kts | 146° |
| 2026-04-21 02:21 | 27.90443 | -82.92675 | 10436 ft | 321 kts | 146° |
| 2026-04-21 02:21 | 27.88575 | -82.91324 | 10110 ft | 313 kts | 146° |
| 2026-04-21 02:22 | 27.86771 | -82.90020 | 9683 ft | 305 kts | 145° |
| 2026-04-21 02:22 | 27.85007 | -82.88746 | 9294 ft | 297 kts | 146° |
| 2026-04-21 02:22 | 27.83293 | -82.87508 | 8911 ft | 289 kts | 144° |
| 2026-04-21 02:22 | 27.81614 | -82.86295 | 8548 ft | 282 kts | 145° |
| 2026-04-21 02:23 | 27.79978 | -82.85114 | 8178 ft | 276 kts | 144° |
| 2026-04-21 02:23 | 27.78364 | -82.83948 | 7807 ft | 276 kts | 145° |
| 2026-04-21 02:23 | 27.76744 | -82.82777 | 7484 ft | 285 kts | 145° |
| 2026-04-21 02:23 | 27.75023 | -82.81533 | 7080 ft | 293 kts | 144° |
| 2026-04-21 02:24 | 27.73321 | -82.80305 | 6678 ft | 295 kts | 143° |
| 2026-04-21 02:24 | 27.71596 | -82.79062 | 6285 ft | 293 kts | 144° |
| 2026-04-21 02:24 | 27.69882 | -82.77828 | 5921 ft | 291 kts | 145° |
| 2026-04-21 02:24 | 27.68181 | -82.76603 | 5536 ft | 289 kts | 144° |
| 2026-04-21 02:25 | 27.66491 | -82.75386 | 5160 ft | 287 kts | 144° |
| 2026-04-21 02:25 | 27.64817 | -82.74181 | 4851 ft | 282 kts | 144° |
| 2026-04-21 02:25 | 27.63162 | -82.72991 | 4408 ft | 283 kts | 144° |
| 2026-04-21 02:25 | 27.61517 | -82.71809 | 4189 ft | 275 kts | 143° |
| 2026-04-21 02:26 | 27.59869 | -82.70804 | 4100 ft | 267 kts | 160° |
| 2026-04-21 02:26 | 27.58059 | -82.70727 | 4057 ft | 260 kts | 189° |
| 2026-04-21 02:26 | 27.56430 | -82.71516 | 3938 ft | 254 kts | 216° |
| 2026-04-21 02:26 | 27.54967 | -82.72450 | 3798 ft | 239 kts | 186° |
| 2026-04-21 02:27 | 27.53435 | -82.72207 | 3580 ft | 216 kts | 141° |
| 2026-04-21 02:27 | 27.52503 | -82.71031 | 3395 ft | 195 kts | 118° |
| 2026-04-21 02:27 | 27.51702 | -82.69819 | 3136 ft | 190 kts | 123° |
| 2026-04-21 02:27 | 27.50874 | -82.68691 | 2936 ft | 182 kts | 123° |
| 2026-04-21 02:28 | 27.50054 | -82.67636 | 2729 ft | 176 kts | 126° |
| 2026-04-21 02:28 | 27.49225 | -82.66652 | 2501 ft | 170 kts | 127° |
| 2026-04-21 02:28 | 27.48413 | -82.65713 | 2280 ft | 164 kts | 127° |
| 2026-04-21 02:28 | 27.47629 | -82.64813 | 2058 ft | 158 kts | 127° |
| 2026-04-21 02:29 | 27.46877 | -82.63947 | 1841 ft | 153 kts | 126° |
| 2026-04-21 02:29 | 27.46127 | -82.63082 | 1656 ft | 156 kts | 126° |
| 2026-04-21 02:29 | 27.45367 | -82.62209 | 1430 ft | 154 kts | 126° |
| 2026-04-21 02:29 | 27.44635 | -82.61369 | 1294 ft | 145 kts | 126° |
| 2026-04-21 02:30 | 27.43943 | -82.60573 | 1049 ft | 136 kts | 126° |
| 2026-04-21 02:30 | 27.43289 | -82.59824 | 816 ft | 137 kts | 126° |
| 2026-04-21 02:30 | 27.42633 | -82.59061 | 703 ft | 136 kts | 127° |
| 2026-04-21 02:30 | 27.41961 | -82.58284 | 547 ft | 142 kts | 128° |
| 2026-04-21 02:31 | 27.41257 | -82.57477 | 376 ft | 145 kts | 129° |
| 2026-04-21 02:31 | 27.40554 | -82.56675 | 146 ft | 142 kts | 128° |
| 2026-04-21 02:31 | 27.39893 | -82.55920 | 28 ft | 125 kts | 134° |
| 2026-04-21 02:31 | 27.39440 | -82.55394 | 27 ft | 61 kts | 134° |
| 2026-04-21 02:32 | 27.39308 | -82.55242 | 27 ft | 31 kts | 134° |
| 2026-04-21 02:32 | 27.39200 | -82.55143 | 27 ft | 15 kts | 176° |
| 2026-04-21 02:32 | 27.39154 | -82.55172 | 28 ft | 4 kts | 223° |
| 2026-04-21 02:32 | 27.39143 | -82.55184 | 28 ft | 2 kts | 227° |
| 2026-04-21 02:33 | 27.39138 | -82.55192 | 29 ft | 0 kts | 234° |
| 2026-04-21 02:33 | 27.39127 | -82.55231 | 29 ft | 10 kts | 255° |
| 2026-04-21 02:33 | 27.39113 | -82.55321 | 30 ft | 13 kts | 266° |
| 2026-04-21 02:34 | 27.39108 | -82.55427 | 30 ft | 8 kts | 249° |
| 2026-04-21 02:34 | 27.39061 | -82.55437 | 30 ft | 8 kts | 158° |
| 2026-04-21 02:34 | 27.39029 | -82.55423 | 29 ft | 0 kts | 158° |